Vila Alta, Brazil
Current Conditions -  °F | °C
As of 6:00 PM on Wednesday 28 Jan 2015 (Local Time) from SBCA Reporting Station
Thunderstorm Thunderstorm  
Wind Chill: 73°   Ceiling: 7000
Heat Index: 73°   Visibility: 6mi
Dew Point: 68°   Wind: 12mph
Humidity: 83%   Direction: 10°N
Pressure: 29.88"   Gusts: NA
Location:  23.51°S, 53.73°W
Report Text: SBCA 282000Z 01010KT 9999 3000SW TS VCSH SCT004 SCT015 FEW030CB BKN070 23/20 Q1012
Loading
Personal Weather Stations






























Interactive Weather Map New forecast layout! Learn more

10-Day Weather Forecast

Advertisements
Track Severe Weather on mobile